Time,TemperatureF,DewpointF,PressureIn,WindDirection,WindDirectionDegrees,WindSpeedMPH,WindSpeedGustMPH,Humidity,HourlyPrecipIn,Conditions,Clouds,dailyrainin,SoftwareType,DateUTC
2013-05-10 00:01:00,67.1,66.2,29.90,WSW,247,0.0,-999.0,97,-99.99,,,0.00,Acu-Link.com,2013-05-10 05:01:00,
2013-05-10 00:16:00,67.5,66.9,29.90,SSW,202,0.0,-999.0,98,-99.99,,,0.00,Acu-Link.com,2013-05-10 05:16:00,
2013-05-10 00:31:00,67.5,66.9,29.90,SSW,202,0.0,-999.0,98,-99.99,,,0.00,Acu-Link.com,2013-05-10 05:31:00,
2013-05-10 00:46:00,67.6,67.1,29.90,West,270,0.0,-999.0,98,-99.99,,,0.00,Acu-Link.com,2013-05-10 05:46:00,
2013-05-10 01:01:00,67.6,67.1,29.89,SSW,202,0.0,-999.0,98,-99.99,,,0.00,Acu-Link.com,2013-05-10 06:01:00,
2013-05-10 01:17:00,67.6,67.1,29.88,West,270,0.0,-999.0,98,-99.99,,,0.00,Acu-Link.com,2013-05-10 06:17:00,
2013-05-10 01:32:00,67.6,67.1,29.87,SSE,157,0.0,-999.0,98,-99.99,,,0.00,Acu-Link.com,2013-05-10 06:32:00,
2013-05-10 01:47:00,67.1,66.8,29.86,WSW,247,0.0,-999.0,99,-99.99,,,0.00,Acu-Link.com,2013-05-10 06:47:00,
2013-05-10 02:02:00,66.7,66.4,29.86,West,270,0.0,-999.0,99,-99.99,,,0.00,Acu-Link.com,2013-05-10 07:02:00,
2013-05-10 02:18:00,66.6,66.3,29.87,ESE,112,0.0,-999.0,99,-99.99,,,0.00,Acu-Link.com,2013-05-10 07:18:00,
2013-05-10 02:33:00,66.6,66.3,29.86,WSW,247,0.0,-999.0,99,-99.99,,,0.00,Acu-Link.com,2013-05-10 07:33:00,
2013-05-10 02:48:00,66.2,65.9,29.85,SSW,202,0.0,-999.0,99,-99.99,,,0.00,Acu-Link.com,2013-05-10 07:48:00,
2013-05-10 03:03:00,66.4,66.1,29.84,ESE,112,0.0,-999.0,99,-99.99,,,0.00,Acu-Link.com,2013-05-10 08:03:00,
2013-05-10 03:18:00,66.6,66.3,29.84,WSW,247,0.0,-999.0,99,-99.99,,,0.00,Acu-Link.com,2013-05-10 08:18:00,
2013-05-10 03:34:00,66.7,66.4,29.85,SW,225,0.0,-999.0,99,-99.99,,,0.00,Acu-Link.com,2013-05-10 08:34:00,
2013-05-10 03:49:00,66.9,66.6,29.85,SSW,202,0.0,-999.0,99,-99.99,,,0.00,Acu-Link.com,2013-05-10 08:49:00,
2013-05-10 04:04:00,66.9,66.6,29.85,SW,225,0.0,-999.0,99,-99.99,,,0.00,Acu-Link.com,2013-05-10 09:04:00,
2013-05-10 04:19:00,66.9,66.6,29.86,SW,225,0.0,-999.0,99,-99.99,,,0.00,Acu-Link.com,2013-05-10 09:19:00,
2013-05-10 04:34:00,66.6,66.3,29.87,West,270,0.0,-999.0,99,-99.99,,,0.00,Acu-Link.com,2013-05-10 09:34:00,
2013-05-10 04:50:00,66.4,66.1,29.86,SW,225,1.6,-999.0,99,-99.99,,,0.00,Acu-Link.com,2013-05-10 09:50:00,
2013-05-10 05:05:00,66.2,65.9,29.87,WSW,247,0.0,-999.0,99,-99.99,,,0.00,Acu-Link.com,2013-05-10 10:05:00,
2013-05-10 05:20:00,66.0,65.7,29.88,WSW,247,2.7,-999.0,99,-99.99,,,0.00,Acu-Link.com,2013-05-10 10:20:00,
2013-05-10 05:35:00,66.0,65.7,29.89,SSW,202,0.0,-999.0,99,-99.99,,,0.00,Acu-Link.com,2013-05-10 10:35:00,
2013-05-10 05:50:00,66.0,65.7,29.89,East,90,2.2,-999.0,99,-99.99,,,0.00,Acu-Link.com,2013-05-10 10:50:00,
2013-05-10 06:06:00,65.8,65.6,29.89,SSW,202,0.0,-999.0,99,-99.99,,,0.00,Acu-Link.com,2013-05-10 11:06:00,
2013-05-10 06:21:00,65.5,65.2,29.90,SW,225,0.0,-999.0,99,-99.99,,,0.00,Acu-Link.com,2013-05-10 11:21:00,
2013-05-10 06:36:00,65.5,65.2,29.90,SSW,202,0.0,-999.0,99,-99.99,,,0.00,Acu-Link.com,2013-05-10 11:36:00,
2013-05-10 06:51:00,65.5,65.2,29.92,SW,225,0.0,-999.0,99,-99.99,,,0.00,Acu-Link.com,2013-05-10 11:51:00,
2013-05-10 07:07:00,65.7,65.4,29.93,SSW,202,0.0,-999.0,99,-99.99,,,0.00,Acu-Link.com,2013-05-10 12:07:00,
2013-05-10 07:22:00,65.8,65.6,29.93,SW,225,0.0,-999.0,99,-99.99,,,0.00,Acu-Link.com,2013-05-10 12:22:00,
2013-05-10 07:37:00,65.8,65.6,29.95,West,270,1.6,-999.0,99,-99.99,,,0.00,Acu-Link.com,2013-05-10 12:37:00,
2013-05-10 07:52:00,65.8,65.6,29.94,South,180,0.0,-999.0,99,-99.99,,,0.00,Acu-Link.com,2013-05-10 12:52:00,
2013-05-10 08:07:00,65.8,65.6,29.94,SSE,157,2.2,-999.0,99,-99.99,,,0.00,Acu-Link.com,2013-05-10 13:07:00,
2013-05-10 08:23:00,66.0,65.4,29.94,SSW,202,0.0,-999.0,98,-99.99,,,0.00,Acu-Link.com,2013-05-10 13:23:00,
2013-05-10 08:38:00,66.4,65.2,29.95,South,180,1.6,-999.0,96,-99.99,,,0.00,Acu-Link.com,2013-05-10 13:38:00,
2013-05-10 08:53:00,67.1,65.6,29.96,SSW,202,0.0,-999.0,95,-99.99,,,0.00,Acu-Link.com,2013-05-10 13:53:00,
2013-05-10 09:08:00,67.5,65.4,29.97,WNW,292,1.6,-999.0,93,-99.99,,,0.00,Acu-Link.com,2013-05-10 14:08:00,
2013-05-10 09:23:00,67.3,65.2,29.97,SW,225,0.0,-999.0,93,-99.99,,,0.00,Acu-Link.com,2013-05-10 14:23:00,
2013-05-10 09:39:00,68.0,65.6,29.97,West,270,0.0,-999.0,92,-99.99,,,0.00,Acu-Link.com,2013-05-10 14:39:00,
2013-05-10 09:54:00,67.8,65.4,29.96,SSE,157,0.0,-999.0,92,-99.99,,,0.00,Acu-Link.com,2013-05-10 14:54:00,
2013-05-10 10:09:00,68.7,66.0,29.96,SSE,157,0.0,-999.0,91,-99.99,,,0.00,Acu-Link.com,2013-05-10 15:09:00,
2013-05-10 10:24:00,70.3,66.9,29.95,SSW,202,0.0,-999.0,89,-99.99,,,0.00,Acu-Link.com,2013-05-10 15:24:00,
2013-05-10 10:39:00,72.5,67.0,29.96,NW,315,3.1,-999.0,83,-99.99,,,0.00,Acu-Link.com,2013-05-10 15:39:00,
2013-05-10 10:55:00,71.6,65.8,29.96,West,270,2.2,-999.0,82,-99.99,,,0.00,Acu-Link.com,2013-05-10 15:55:00,
2013-05-10 11:10:00,73.8,66.5,29.96,SSW,202,2.2,-999.0,78,-99.99,,,0.00,Acu-Link.com,2013-05-10 16:10:00,
2013-05-10 11:25:00,75.7,66.8,29.96,NNW,337,1.1,-999.0,74,-99.99,,,0.00,Acu-Link.com,2013-05-10 16:25:00,
2013-05-10 11:40:00,76.1,66.4,29.96,WSW,247,2.2,-999.0,72,-99.99,,,0.00,Acu-Link.com,2013-05-10 16:40:00,
2013-05-10 11:56:00,75.6,66.3,29.96,South,180,2.7,-999.0,73,-99.99,,,0.00,Acu-Link.com,2013-05-10 16:56:00,
2013-05-10 12:11:00,76.8,66.3,29.96,WSW,247,2.7,-999.0,70,-99.99,,,0.00,Acu-Link.com,2013-05-10 17:11:00,
2013-05-10 12:26:00,77.9,66.0,29.95,ESE,112,1.1,-999.0,67,-99.99,,,0.00,Acu-Link.com,2013-05-10 17:26:00,
2013-05-10 12:41:00,77.9,65.6,29.95,SSE,157,2.2,-999.0,66,-99.99,,,0.00,Acu-Link.com,2013-05-10 17:41:00,
2013-05-10 12:56:00,78.8,65.1,29.95,SSW,202,1.1,-999.0,63,-99.99,,,0.00,Acu-Link.com,2013-05-10 17:56:00,
2013-05-10 13:12:00,78.1,64.4,29.95,SW,225,2.7,-999.0,63,-99.99,,,0.00,Acu-Link.com,2013-05-10 18:12:00,
2013-05-10 13:27:00,80.2,65.1,29.95,SW,225,3.8,-999.0,60,-99.99,,,0.00,Acu-Link.com,2013-05-10 18:27:00,
2013-05-10 13:42:00,79.5,63.9,29.94,SSW,202,1.1,-999.0,59,-99.99,,,0.00,Acu-Link.com,2013-05-10 18:42:00,
2013-05-10 13:57:00,80.6,63.9,29.93,South,180,2.7,-999.0,57,-99.99,,,0.00,Acu-Link.com,2013-05-10 18:57:00,
2013-05-10 14:13:00,82.0,63.7,29.93,South,180,2.7,-999.0,54,-99.99,,,0.00,Acu-Link.com,2013-05-10 19:13:00,
2013-05-10 14:28:00,82.2,62.8,29.92,South,180,0.0,-999.0,52,-99.99,,,0.00,Acu-Link.com,2013-05-10 19:28:00,
2013-05-10 14:43:00,82.8,62.8,29.91,SSW,202,3.1,-999.0,51,-99.99,,,0.00,Acu-Link.com,2013-05-10 19:43:00,
2013-05-10 14:58:00,82.9,61.8,29.91,SW,225,2.2,-999.0,49,-99.99,,,0.00,Acu-Link.com,2013-05-10 19:58:00,
2013-05-10 15:13:00,83.7,61.9,29.91,SW,225,2.7,-999.0,48,-99.99,,,0.00,Acu-Link.com,2013-05-10 20:13:00,
2013-05-10 15:29:00,84.9,63.0,29.90,West,270,0.0,-999.0,48,-99.99,,,0.00,Acu-Link.com,2013-05-10 20:29:00,
2013-05-10 15:44:00,85.5,62.9,29.91,WSW,247,2.2,-999.0,47,-99.99,,,0.00,Acu-Link.com,2013-05-10 20:44:00,
2013-05-10 15:59:00,85.1,63.2,29.90,South,180,2.2,-999.0,48,-99.99,,,0.00,Acu-Link.com,2013-05-10 20:59:00,
2013-05-10 16:14:00,84.0,61.6,29.90,SW,225,3.8,-999.0,47,-99.99,,,0.00,Acu-Link.com,2013-05-10 21:14:00,
2013-05-10 16:29:00,83.8,61.4,29.90,West,270,2.2,-999.0,47,-99.99,,,0.00,Acu-Link.com,2013-05-10 21:29:00,
2013-05-10 16:45:00,82.8,60.4,29.90,WNW,292,2.2,-999.0,47,-99.99,,,0.00,Acu-Link.com,2013-05-10 21:45:00,
2013-05-10 17:00:00,82.4,59.5,29.89,West,270,2.2,-999.0,46,-99.99,,,0.00,Acu-Link.com,2013-05-10 22:00:00,
2013-05-10 17:15:00,82.8,60.4,29.90,West,270,2.2,-999.0,47,-99.99,,,0.00,Acu-Link.com,2013-05-10 22:15:00,
2013-05-10 17:30:00,82.4,60.1,29.90,East,90,0.0,-999.0,47,-99.99,,,0.00,Acu-Link.com,2013-05-10 22:30:00,
2013-05-10 17:45:00,82.2,59.4,29.89,SSE,157,2.7,-999.0,46,-99.99,,,0.00,Acu-Link.com,2013-05-10 22:45:00,
2013-05-10 18:01:00,82.8,58.6,29.89,SSW,202,0.0,-999.0,44,-99.99,,,0.00,Acu-Link.com,2013-05-10 23:01:00,
2013-05-10 18:16:00,80.6,58.5,29.89,ESE,112,1.1,-999.0,47,-99.99,,,0.00,Acu-Link.com,2013-05-10 23:16:00,
2013-05-10 18:31:00,80.2,58.2,29.89,North,0,1.6,-999.0,47,-99.99,,,0.00,Acu-Link.com,2013-05-10 23:31:00,
2013-05-10 18:46:00,80.6,58.5,29.90,East,90,1.6,-999.0,47,-99.99,,,0.00,Acu-Link.com,2013-05-10 23:46:00,
2013-05-10 19:01:00,79.2,58.9,29.90,South,180,1.6,-999.0,50,-99.99,,,0.00,Acu-Link.com,2013-05-11 00:01:00,
2013-05-10 19:17:00,78.6,59.0,29.90,WNW,292,2.2,-999.0,51,-99.99,,,0.00,Acu-Link.com,2013-05-11 00:17:00,
2013-05-10 19:32:00,78.3,58.6,29.91,South,180,1.1,-999.0,51,-99.99,,,0.00,Acu-Link.com,2013-05-11 00:32:00,
2013-05-10 19:47:00,77.4,58.3,29.92,West,270,3.1,-999.0,52,-99.99,,,0.00,Acu-Link.com,2013-05-11 00:47:00,
2013-05-10 20:02:00,77.0,57.5,29.93,South,180,1.6,-999.0,51,-99.99,,,0.00,Acu-Link.com,2013-05-11 01:02:00,
2013-05-10 20:18:00,76.3,57.9,29.94,South,180,0.0,-999.0,53,-99.99,,,0.00,Acu-Link.com,2013-05-11 01:18:00,
2013-05-10 20:48:00,75.4,57.0,29.94,WSW,247,2.2,-999.0,53,-99.99,,,0.00,Acu-Link.com,2013-05-11 01:48:00,
2013-05-10 21:03:00,74.8,57.1,29.95,West,270,2.2,-999.0,54,-99.99,,,0.00,Acu-Link.com,2013-05-11 02:03:00,
2013-05-10 21:18:00,74.3,58.1,29.96,SW,225,1.6,-999.0,57,-99.99,,,0.00,Acu-Link.com,2013-05-11 02:18:00,
2013-05-10 21:34:00,74.1,57.9,29.97,SW,225,0.0,-999.0,57,-99.99,,,0.00,Acu-Link.com,2013-05-11 02:34:00,
2013-05-10 21:49:00,73.4,58.2,29.98,WNW,292,0.0,-999.0,59,-99.99,,,0.00,Acu-Link.com,2013-05-11 02:49:00,
2013-05-10 22:04:00,73.2,58.0,29.98,SW,225,1.6,-999.0,59,-99.99,,,0.00,Acu-Link.com,2013-05-11 03:04:00,
2013-05-10 22:19:00,72.7,57.5,29.99,SW,225,0.0,-999.0,59,-99.99,,,0.00,Acu-Link.com,2013-05-11 03:19:00,
2013-05-10 22:34:00,72.3,57.6,30.00,ESE,112,0.0,-999.0,60,-99.99,,,0.00,Acu-Link.com,2013-05-11 03:34:00,
2013-05-10 22:50:00,71.6,57.9,30.01,WNW,292,1.1,-999.0,62,-99.99,,,0.00,Acu-Link.com,2013-05-11 03:50:00,
2013-05-10 23:05:00,71.2,58.0,30.01,ESE,112,0.0,-999.0,63,-99.99,,,0.00,Acu-Link.com,2013-05-11 04:05:00,
2013-05-10 23:20:00,71.1,57.8,30.01,WSW,247,1.1,-999.0,63,-99.99,,,0.00,Acu-Link.com,2013-05-11 04:20:00,
2013-05-10 23:35:00,70.7,57.5,30.02,SE,135,0.0,-999.0,63,-99.99,,,0.00,Acu-Link.com,2013-05-11 04:35:00,
2013-05-10 23:50:00,70.3,57.6,30.02,SW,225,0.0,-999.0,64,-99.99,,,0.00,Acu-Link.com,2013-05-11 04:50:00,